sensor_id;sensor_type;location;lat;lon;timestamp;pressure;altitude;pressure_sealevel;temperature;humidity
75072;BME280;63651;55.728;38.022;2024-03-02T00:04:31;100770.66;;;15.64;37.12
75072;BME280;63651;55.728;38.022;2024-03-02T00:09:34;100767.06;;;15.63;36.72
75072;BME280;63651;55.728;38.022;2024-03-02T00:14:37;100774.81;;;15.60;36.90
75072;BME280;63651;55.728;38.022;2024-03-02T00:19:39;100773.13;;;15.59;37.01
75072;BME280;63651;55.728;38.022;2024-03-02T00:24:42;100768.50;;;15.59;36.95
75072;BME280;63651;55.728;38.022;2024-03-02T00:29:44;100767.88;;;15.57;37.15
75072;BME280;63651;55.728;38.022;2024-03-02T00:34:47;100761.34;;;15.58;36.91
75072;BME280;63651;55.728;38.022;2024-03-02T00:39:49;100762.56;;;15.56;37.11
75072;BME280;63651;55.728;38.022;2024-03-02T00:44:51;100756.66;;;15.52;36.99
75072;BME280;63651;55.728;38.022;2024-03-02T00:49:53;100757.31;;;15.54;36.84
75072;BME280;63651;55.728;38.022;2024-03-02T00:54:57;100766.56;;;15.53;37.17
75072;BME280;63651;55.728;38.022;2024-03-02T01:00:00;100757.94;;;15.50;37.23
75072;BME280;63651;55.728;38.022;2024-03-02T01:05:03;100762.97;;;15.53;36.90
75072;BME280;63651;55.728;38.022;2024-03-02T01:10:07;100765.28;;;15.49;37.13
75072;BME280;63651;55.728;38.022;2024-03-02T01:15:11;100767.19;;;15.49;37.05
75072;BME280;63651;55.728;38.022;2024-03-02T01:20:14;100764.03;;;15.52;37.03
75072;BME280;63651;55.728;38.022;2024-03-02T01:25:17;100773.09;;;15.46;37.03
75072;BME280;63651;55.728;38.022;2024-03-02T01:30:19;100770.34;;;15.46;37.08
75072;BME280;63651;55.728;38.022;2024-03-02T01:35:21;100776.88;;;15.45;36.92
75072;BME280;63651;55.728;38.022;2024-03-02T01:40:24;100781.72;;;15.43;36.93
75072;BME280;63651;55.728;38.022;2024-03-02T01:45:30;100782.13;;;15.40;36.92
75072;BME280;63651;55.728;38.022;2024-03-02T01:50:33;100789.09;;;15.42;37.12
75072;BME280;63651;55.728;38.022;2024-03-02T01:55:35;100790.13;;;15.41;36.99
75072;BME280;63651;55.728;38.022;2024-03-02T02:00:38;100792.66;;;15.43;37.35
75072;BME280;63651;55.728;38.022;2024-03-02T02:05:42;100799.19;;;15.42;37.31
75072;BME280;63651;55.728;38.022;2024-03-02T02:10:44;100795.41;;;15.43;37.16
75072;BME280;63651;55.728;38.022;2024-03-02T02:15:47;100804.88;;;15.40;37.41
75072;BME280;63651;55.728;38.022;2024-03-02T02:20:50;100799.19;;;15.42;36.95
75072;BME280;63651;55.728;38.022;2024-03-02T02:25:53;100806.56;;;15.41;37.06
75072;BME280;63651;55.728;38.022;2024-03-02T02:30:56;100811.59;;;15.37;37.11
75072;BME280;63651;55.728;38.022;2024-03-02T02:36:02;100809.31;;;15.41;37.15
75072;BME280;63651;55.728;38.022;2024-03-02T02:41:04;100809.91;;;15.36;37.39
75072;BME280;63651;55.728;38.022;2024-03-02T02:46:06;100797.28;;;15.35;36.89
75072;BME280;63651;55.728;38.022;2024-03-02T02:51:09;100800.22;;;15.34;36.96
75072;BME280;63651;55.728;38.022;2024-03-02T02:56:11;100805.06;;;15.32;36.85
75072;BME280;63651;55.728;38.022;2024-03-02T03:01:14;100804.66;;;15.35;37.05
75072;BME280;63651;55.728;38.022;2024-03-02T03:06:15;100798.31;;;15.28;37.28
75072;BME280;63651;55.728;38.022;2024-03-02T03:11:18;100798.94;;;15.30;37.13
75072;BME280;63651;55.728;38.022;2024-03-02T03:16:21;100797.47;;;15.34;36.81
75072;BME280;63651;55.728;38.022;2024-03-02T03:21:24;100793.25;;;15.25;37.07
75072;BME280;63651;55.728;38.022;2024-03-02T03:26:25;100785.00;;;15.18;36.97
75072;BME280;63651;55.728;38.022;2024-03-02T03:31:28;100798.31;;;15.28;36.77
75072;BME280;63651;55.728;38.022;2024-03-02T03:36:30;100791.34;;;15.25;37.25
75072;BME280;63651;55.728;38.022;2024-03-02T03:41:33;100799.78;;;15.24;36.67
75072;BME280;63651;55.728;38.022;2024-03-02T03:46:34;100789.03;;;15.22;36.78
75072;BME280;63651;55.728;38.022;2024-03-02T03:51:37;100793.25;;;15.25;37.05
75072;BME280;63651;55.728;38.022;2024-03-02T03:56:39;100801.88;;;15.22;37.05
75072;BME280;63651;55.728;38.022;2024-03-02T04:01:42;100800.00;;;15.29;36.64
75072;BME280;63651;55.728;38.022;2024-03-02T04:06:44;100796.81;;;15.25;36.74
75072;BME280;63651;55.728;38.022;2024-03-02T04:11:47;100811.34;;;15.26;37.08
75072;BME280;63651;55.728;38.022;2024-03-02T04:16:50;100799.97;;;15.22;36.82
75072;BME280;63651;55.728;38.022;2024-03-02T04:21:52;100786.69;;;15.19;36.84
75072;BME280;63651;55.728;38.022;2024-03-02T04:26:54;100802.09;;;15.27;37.33
75072;BME280;63651;55.728;38.022;2024-03-02T04:31:57;100803.75;;;15.21;37.44
75072;BME280;63651;55.728;38.022;2024-03-02T04:37:00;100800.84;;;15.29;38.39
75072;BME280;63651;55.728;38.022;2024-03-02T04:42:03;100804.41;;;15.30;38.39
75072;BME280;63651;55.728;38.022;2024-03-02T04:47:04;100800.84;;;15.29;38.27
75072;BME280;63651;55.728;38.022;2024-03-02T04:52:06;100800.84;;;15.29;38.57
75072;BME280;63651;55.728;38.022;2024-03-02T04:57:09;100805.47;;;15.29;38.59
75072;BME280;63651;55.728;38.022;2024-03-02T05:02:11;100800.19;;;15.27;38.57
75072;BME280;63651;55.728;38.022;2024-03-02T05:07:15;100797.47;;;15.34;38.48
75072;BME280;63651;55.728;38.022;2024-03-02T05:12:17;100805.06;;;15.32;38.21
75072;BME280;63651;55.728;38.022;2024-03-02T05:17:40;100808.44;;;15.34;38.40
75072;BME280;63651;55.728;38.022;2024-03-02T05:22:45;100812.03;;;15.41;38.52
75072;BME280;63651;55.728;38.022;2024-03-02T05:27:48;100809.06;;;15.36;38.26
75072;BME280;63651;55.728;38.022;2024-03-02T05:32:51;100811.19;;;15.41;38.50
75072;BME280;63651;55.728;38.022;2024-03-02T05:37:56;100804.03;;;15.46;38.69
75072;BME280;63651;55.728;38.022;2024-03-02T05:42:59;100811.66;;;15.51;39.01
75072;BME280;63651;55.728;38.022;2024-03-02T05:48:01;100817.16;;;15.57;38.59
75072;BME280;63651;55.728;38.022;2024-03-02T05:53:03;100818.00;;;15.58;38.37
75072;BME280;63651;55.728;38.022;2024-03-02T05:58:06;100809.44;;;15.67;37.90
75072;BME280;63651;55.728;38.022;2024-03-02T06:03:38;100812.59;;;15.71;37.68
75072;BME280;63651;55.728;38.022;2024-03-02T06:08:41;100813.66;;;15.70;38.19
75072;BME280;63651;55.728;38.022;2024-03-02T06:13:43;100825.03;;;15.74;38.71
75072;BME280;63651;55.728;38.022;2024-03-02T06:18:46;100822.13;;;17.32;40.50
75072;BME280;63651;55.728;38.022;2024-03-02T06:23:48;100819.44;;;18.27;39.02
75072;BME280;63651;55.728;38.022;2024-03-02T06:28:51;100812.00;;;18.52;38.30
75072;BME280;63651;55.728;38.022;2024-03-02T06:33:53;100824.47;;;18.79;37.85
75072;BME280;63651;55.728;38.022;2024-03-02T06:38:56;100823.19;;;19.00;37.14
75072;BME280;63651;55.728;38.022;2024-03-02T06:43:58;100827.06;;;19.11;36.34
75072;BME280;63651;55.728;38.022;2024-03-02T06:49:00;100815.28;;;19.22;35.47
75072;BME280;63651;55.728;38.022;2024-03-02T06:54:04;100824.06;;;19.31;34.80
75072;BME280;63651;55.728;38.022;2024-03-02T06:59:08;100812.50;;;19.40;34.22
75072;BME280;63651;55.728;38.022;2024-03-02T07:04:11;100823.19;;;19.48;33.66
75072;BME280;63651;55.728;38.022;2024-03-02T07:09:13;100830.38;;;19.56;33.80
75072;BME280;63651;55.728;38.022;2024-03-02T07:14:15;100826.91;;;19.61;32.89
75072;BME280;63651;55.728;38.022;2024-03-02T07:19:19;100821.31;;;19.67;32.49
75072;BME280;63651;55.728;38.022;2024-03-02T07:24:21;100822.53;;;19.71;32.36
75072;BME280;63651;55.728;38.022;2024-03-02T07:29:24;100827.31;;;19.76;32.12
75072;BME280;63651;55.728;38.022;2024-03-02T07:34:26;100823.63;;;19.82;31.96
75072;BME280;63651;55.728;38.022;2024-03-02T07:39:28;100817.88;;;19.84;31.69
75072;BME280;63651;55.728;38.022;2024-03-02T07:44:31;100814.78;;;19.92;31.20
75072;BME280;63651;55.728;38.022;2024-03-02T07:49:33;100812.41;;;19.95;31.25
75072;BME280;63651;55.728;38.022;2024-03-02T07:54:36;100810.38;;;20.02;30.94
75072;BME280;63651;55.728;38.022;2024-03-02T07:59:38;100815.78;;;20.09;30.69
75072;BME280;63651;55.728;38.022;2024-03-02T08:04:41;100812.41;;;20.07;30.61
75072;BME280;63651;55.728;38.022;2024-03-02T08:09:43;100809.69;;;20.19;30.29
75072;BME280;63651;55.728;38.022;2024-03-02T08:14:46;100814.50;;;20.23;30.37
75072;BME280;63651;55.728;38.022;2024-03-02T08:19:47;100803.56;;;20.28;30.15
75072;BME280;63651;55.728;38.022;2024-03-02T08:24:50;100802.78;;;20.39;29.90
75072;BME280;63651;55.728;38.022;2024-03-02T08:29:52;100801.81;;;20.45;29.79
75072;BME280;63651;55.728;38.022;2024-03-02T08:34:54;100806.63;;;20.50;29.76
75072;BME280;63651;55.728;38.022;2024-03-02T08:39:56;100802.41;;;20.59;29.39
75072;BME280;63651;55.728;38.022;2024-03-02T08:44:58;100803.00;;;20.61;28.96
75072;BME280;63651;55.728;38.022;2024-03-02T08:50:03;100801.81;;;20.69;28.92
75072;BME280;63651;55.728;38.022;2024-03-02T08:55:08;100801.69;;;20.75;28.93
75072;BME280;63651;55.728;38.022;2024-03-02T09:00:11;100799.66;;;20.83;28.79
75072;BME280;63651;55.728;38.022;2024-03-02T09:05:14;100808.31;;;20.86;28.17
75072;BME280;63651;55.728;38.022;2024-03-02T09:10:16;100807.09;;;20.82;28.49
75072;BME280;63651;55.728;38.022;2024-03-02T09:15:18;100803.50;;;20.82;28.43
75072;BME280;63651;55.728;38.022;2024-03-02T09:20:21;100806.25;;;20.82;28.26
75072;BME280;63651;55.728;38.022;2024-03-02T09:25:24;100815.75;;;20.86;28.23
75072;BME280;63651;55.728;38.022;2024-03-02T09:30:27;100809.38;;;20.85;27.99
75072;BME280;63651;55.728;38.022;2024-03-02T09:35:30;100796.66;;;20.84;27.99
75072;BME280;63651;55.728;38.022;2024-03-02T09:40:32;100802.06;;;20.91;28.08
75072;BME280;63651;55.728;38.022;2024-03-02T09:45:35;100794.59;;;20.91;27.86
75072;BME280;63651;55.728;38.022;2024-03-02T09:50:38;100785.84;;;20.94;27.60
75072;BME280;63651;55.728;38.022;2024-03-02T09:55:41;100786.19;;;20.98;27.47
75072;BME280;63651;55.728;38.022;2024-03-02T10:00:45;100793.97;;;21.01;27.37
75072;BME280;63651;55.728;38.022;2024-03-02T10:05:48;100790.25;;;21.07;27.24
75072;BME280;63651;55.728;38.022;2024-03-02T10:10:50;100788.78;;;21.16;27.12
75072;BME280;63651;55.728;38.022;2024-03-02T10:15:52;100794.31;;;21.16;27.17
75072;BME280;63651;55.728;38.022;2024-03-02T10:20:53;100782.31;;;21.22;26.65
75072;BME280;63651;55.728;38.022;2024-03-02T10:25:55;100779.75;;;21.21;27.06
75072;BME280;63651;55.728;38.022;2024-03-02T10:30:58;100790.34;;;21.24;26.59
75072;BME280;63651;55.728;38.022;2024-03-02T10:36:00;100781.09;;;21.18;26.77
75072;BME280;63651;55.728;38.022;2024-03-02T10:41:02;100782.50;;;21.21;26.97
75072;BME280;63651;55.728;38.022;2024-03-02T10:46:05;100781.22;;;21.12;26.50
75072;BME280;63651;55.728;38.022;2024-03-02T10:51:07;100781.97;;;21.07;26.74
75072;BME280;63651;55.728;38.022;2024-03-02T10:56:10;100782.69;;;21.02;26.64
75072;BME280;63651;55.728;38.022;2024-03-02T11:01:17;100784.84;;;21.00;26.70
75072;BME280;63651;55.728;38.022;2024-03-02T11:06:21;100781.50;;;20.98;26.87
75072;BME280;63651;55.728;38.022;2024-03-02T11:11:28;100784.16;;;20.93;26.66
75072;BME280;63651;55.728;38.022;2024-03-02T11:16:38;100788.47;;;20.89;26.50
75072;BME280;63651;55.728;38.022;2024-03-02T11:21:43;100787.38;;;20.78;26.66
75072;BME280;63651;55.728;38.022;2024-03-02T11:26:46;100787.03;;;20.75;26.83
75072;BME280;63651;55.728;38.022;2024-03-02T11:31:59;100792.56;;;20.63;26.99
75072;BME280;63651;55.728;38.022;2024-03-02T11:37:04;100802.91;;;20.56;27.13
75072;BME280;63651;55.728;38.022;2024-03-02T11:42:07;100801.22;;;20.67;27.00
75072;BME280;63651;55.728;38.022;2024-03-02T11:47:15;100796.41;;;20.62;26.88
75072;BME280;63651;55.728;38.022;2024-03-02T11:52:17;100797.00;;;20.64;26.70
75072;BME280;63651;55.728;38.022;2024-03-02T11:57:21;100789.56;;;20.65;26.63
75072;BME280;63651;55.728;38.022;2024-03-02T12:02:42;100796.53;;;20.67;26.51
75072;BME280;63651;55.728;38.022;2024-03-02T12:07:48;100798.94;;;20.64;26.44
75072;BME280;63651;55.728;38.022;2024-03-02T12:13:00;100792.34;;;20.53;26.95
75072;BME280;63651;55.728;38.022;2024-03-02T12:18:03;100800.97;;;20.57;26.66
75072;BME280;63651;55.728;38.022;2024-03-02T12:23:05;100807.81;;;20.54;26.77
75072;BME280;63651;55.728;38.022;2024-03-02T12:28:07;100805.78;;;20.50;26.54
75072;BME280;63651;55.728;38.022;2024-03-02T12:33:11;100804.94;;;20.49;26.43
75072;BME280;63651;55.728;38.022;2024-03-02T12:38:14;100817.53;;;20.45;26.64
75072;BME280;63651;55.728;38.022;2024-03-02T12:43:21;100816.56;;;20.51;26.37
75072;BME280;63651;55.728;38.022;2024-03-02T12:48:25;100821.38;;;20.44;26.66
75072;BME280;63651;55.728;38.022;2024-03-02T12:53:27;100809.72;;;20.42;26.36
75072;BME280;63651;55.728;38.022;2024-03-02T12:58:30;100801.06;;;20.38;26.35
75072;BME280;63651;55.728;38.022;2024-03-02T13:03:39;100801.94;;;20.39;26.64
75072;BME280;63651;55.728;38.022;2024-03-02T13:08:41;100793.75;;;20.32;26.71
75072;BME280;63651;55.728;38.022;2024-03-02T13:13:44;100800.34;;;20.31;26.51
75072;BME280;63651;55.728;38.022;2024-03-02T13:18:46;100796.63;;;20.26;26.75
75072;BME280;63651;55.728;38.022;2024-03-02T13:23:48;100814.97;;;20.20;26.77
75072;BME280;63651;55.728;38.022;2024-03-02T13:28:51;100813.53;;;20.18;26.80
75072;BME280;63651;55.728;38.022;2024-03-02T13:33:53;100808.25;;;20.16;26.72
75072;BME280;63651;55.728;38.022;2024-03-02T13:38:55;100810.09;;;19.92;26.55
75072;BME280;63651;55.728;38.022;2024-03-02T13:44:00;100802.91;;;18.76;27.26
75072;BME280;63651;55.728;38.022;2024-03-02T13:49:03;100808.31;;;18.40;28.41
75072;BME280;63651;55.728;38.022;2024-03-02T13:54:05;100823.50;;;18.17;28.73
75072;BME280;63651;55.728;38.022;2024-03-02T13:59:07;100810.53;;;18.00;29.77
75072;BME280;63651;55.728;38.022;2024-03-02T14:04:09;100813.22;;;17.81;30.05
75072;BME280;63651;55.728;38.022;2024-03-02T14:09:11;100812.66;;;17.66;30.66
75072;BME280;63651;55.728;38.022;2024-03-02T14:14:13;100812.06;;;17.57;30.54
75072;BME280;63651;55.728;38.022;2024-03-02T14:19:15;100810.84;;;17.47;30.61
75072;BME280;63651;55.728;38.022;2024-03-02T14:24:17;100820.19;;;17.39;31.11
75072;BME280;63651;55.728;38.022;2024-03-02T14:29:19;100819.38;;;17.32;30.57
75072;BME280;63651;55.728;38.022;2024-03-02T14:34:21;100826.41;;;17.21;31.30
75072;BME280;63651;55.728;38.022;2024-03-02T14:39:24;100821.16;;;17.13;31.59
75072;BME280;63651;55.728;38.022;2024-03-02T14:44:26;100828.13;;;17.09;32.10
75072;BME280;63651;55.728;38.022;2024-03-02T14:49:27;100820.97;;;17.02;31.88
75072;BME280;63651;55.728;38.022;2024-03-02T14:54:29;100818.66;;;16.99;31.99
75072;BME280;63651;55.728;38.022;2024-03-02T14:59:33;100831.56;;;16.98;31.72
75072;BME280;63651;55.728;38.022;2024-03-02T15:04:35;100835.16;;;16.85;32.37
75072;BME280;63651;55.728;38.022;2024-03-02T15:09:37;100832.41;;;16.79;32.05
75072;BME280;63651;55.728;38.022;2024-03-02T15:14:39;100836.22;;;16.84;32.18
75072;BME280;63651;55.728;38.022;2024-03-02T15:19:46;100845.28;;;16.78;31.97
75072;BME280;63651;55.728;38.022;2024-03-02T15:24:49;100845.31;;;16.72;32.10
75072;BME280;63651;55.728;38.022;2024-03-02T15:29:52;100841.53;;;16.66;32.15
75072;BME280;63651;55.728;38.022;2024-03-02T15:34:54;100845.31;;;16.65;32.12
75072;BME280;63651;55.728;38.022;2024-03-02T15:39:57;100849.72;;;16.59;32.18
75072;BME280;63651;55.728;38.022;2024-03-02T15:44:59;100851.41;;;16.60;32.27
75072;BME280;63651;55.728;38.022;2024-03-02T15:50:01;100840.88;;;16.57;33.06
75072;BME280;63651;55.728;38.022;2024-03-02T15:55:03;100833.72;;;16.50;32.99
75072;BME280;63651;55.728;38.022;2024-03-02T16:00:08;100843.81;;;16.56;32.74
75072;BME280;63651;55.728;38.022;2024-03-02T16:05:11;100845.31;;;16.52;32.84
75072;BME280;63651;55.728;38.022;2024-03-02T16:10:15;100838.13;;;16.51;33.13
75072;BME280;63651;55.728;38.022;2024-03-02T16:15:17;100837.09;;;16.45;33.61
75072;BME280;63651;55.728;38.022;2024-03-02T16:20:19;100836.25;;;16.45;33.84
75072;BME280;63651;55.728;38.022;2024-03-02T16:25:21;100847.22;;;16.45;34.34
75072;BME280;63651;55.728;38.022;2024-03-02T16:30:26;100859.44;;;16.42;35.00
75072;BME280;63651;55.728;38.022;2024-03-02T16:35:29;100868.72;;;16.41;35.52
75072;BME280;63651;55.728;38.022;2024-03-02T16:40:30;100867.88;;;16.41;36.13
75072;BME280;63651;55.728;38.022;2024-03-02T16:45:34;100862.19;;;16.36;36.50
75072;BME280;63651;55.728;38.022;2024-03-02T16:50:35;100856.06;;;16.33;36.63
75072;BME280;63651;55.728;38.022;2024-03-02T16:55:38;100850.81;;;16.32;36.08
75072;BME280;63651;55.728;38.022;2024-03-02T17:00:40;100859.88;;;16.26;35.97
75072;BME280;63651;55.728;38.022;2024-03-02T17:05:42;100859.25;;;16.24;36.13
75072;BME280;63651;55.728;38.022;2024-03-02T17:10:44;100857.75;;;16.21;36.24
75072;BME280;63651;55.728;38.022;2024-03-02T17:15:48;100870.00;;;16.19;36.64
75072;BME280;63651;55.728;38.022;2024-03-02T17:20:53;100871.88;;;16.12;37.15
75072;BME280;63651;55.728;38.022;2024-03-02T17:25:55;100877.38;;;16.12;37.20
75072;BME280;63651;55.728;38.022;2024-03-02T17:30:57;100872.94;;;16.04;38.07
75072;BME280;63651;55.728;38.022;2024-03-02T17:36:01;100890.00;;;16.06;37.89
75072;BME280;63651;55.728;38.022;2024-03-02T17:41:05;100888.13;;;16.07;37.49
75072;BME280;63651;55.728;38.022;2024-03-02T17:46:06;100879.03;;;15.99;37.56
75072;BME280;63651;55.728;38.022;2024-03-02T17:51:09;100876.72;;;16.03;37.37
75072;BME280;63651;55.728;38.022;2024-03-02T17:56:11;100878.41;;;15.97;37.47
75072;BME280;63651;55.728;38.022;2024-03-02T18:01:13;100881.56;;;15.94;37.20
75072;BME280;63651;55.728;38.022;2024-03-02T18:06:16;100880.69;;;15.87;36.85
75072;BME280;63651;55.728;38.022;2024-03-02T18:11:19;100876.91;;;15.82;36.64
75072;BME280;63651;55.728;38.022;2024-03-02T18:16:24;100886.38;;;15.86;36.82
75072;BME280;63651;55.728;38.022;2024-03-02T18:21:26;100891.00;;;15.79;37.00
75072;BME280;63651;55.728;38.022;2024-03-02T18:26:29;100888.28;;;15.79;36.74
75072;BME280;63651;55.728;38.022;2024-03-02T18:31:34;100897.09;;;15.74;36.48
75072;BME280;63651;55.728;38.022;2024-03-02T18:36:37;100890.38;;;15.77;36.38
75072;BME280;63651;55.728;38.022;2024-03-02T18:41:39;100893.94;;;15.71;36.41
75072;BME280;63651;55.728;38.022;2024-03-02T18:46:42;100888.88;;;15.67;36.51
75072;BME280;63651;55.728;38.022;2024-03-02T18:51:44;100902.34;;;15.69;36.29
75072;BME280;63651;55.728;38.022;2024-03-02T18:56:47;100893.66;;;15.59;36.96
75072;BME280;63651;55.728;38.022;2024-03-02T19:01:49;100895.41;;;15.66;37.17
75072;BME280;63651;55.728;38.022;2024-03-02T19:06:52;100898.75;;;15.62;37.02
75072;BME280;63651;55.728;38.022;2024-03-02T19:11:53;100901.09;;;15.65;37.42
75072;BME280;63651;55.728;38.022;2024-03-02T19:16:56;100898.75;;;15.62;37.34
75072;BME280;63651;55.728;38.022;2024-03-02T19:21:59;100895.53;;;15.58;37.27
75072;BME280;63651;55.728;38.022;2024-03-02T19:27:02;100897.25;;;15.59;37.39
75072;BME280;63651;55.728;38.022;2024-03-02T19:32:05;100905.00;;;15.56;37.61
75072;BME280;63651;55.728;38.022;2024-03-02T19:37:10;100902.88;;;15.51;37.31
75072;BME280;63651;55.728;38.022;2024-03-02T19:42:12;100901.59;;;15.47;37.46
75072;BME280;63651;55.728;38.022;2024-03-02T19:47:14;100903.28;;;15.48;37.03
75072;BME280;63651;55.728;38.022;2024-03-02T19:52:20;100896.31;;;15.46;37.49
75072;BME280;63651;55.728;38.022;2024-03-02T19:57:23;100899.22;;;15.37;37.26
75072;BME280;63651;55.728;38.022;2024-03-02T20:02:27;100904.47;;;15.32;37.33
75072;BME280;63651;55.728;38.022;2024-03-02T20:07:29;100903.19;;;15.28;37.15
75072;BME280;63651;55.728;38.022;2024-03-02T20:12:32;100904.63;;;15.24;36.73
75072;BME280;63651;55.728;38.022;2024-03-02T20:17:34;100901.91;;;15.24;36.88
75072;BME280;63651;55.728;38.022;2024-03-02T20:22:36;100877.63;;;15.15;37.34
75072;BME280;63651;55.728;38.022;2024-03-02T20:27:39;100888.19;;;15.18;37.52
75072;BME280;63651;55.728;38.022;2024-03-02T20:32:44;100898.25;;;15.11;37.16
75072;BME280;63651;55.728;38.022;2024-03-02T20:37:46;100901.81;;;15.11;36.96
75072;BME280;63651;55.728;38.022;2024-03-02T20:42:48;100912.56;;;15.13;37.06
75072;BME280;63651;55.728;38.022;2024-03-02T20:47:51;100912.78;;;15.11;37.04
75072;BME280;63651;55.728;38.022;2024-03-02T20:52:53;100914.88;;;15.09;37.11
75072;BME280;63651;55.728;38.022;2024-03-02T20:57:58;100918.66;;;15.08;36.95
75072;BME280;63651;55.728;38.022;2024-03-02T21:03:01;100913.19;;;15.08;36.68
75072;BME280;63651;55.728;38.022;2024-03-02T21:08:05;100917.75;;;15.01;36.71
75072;BME280;63651;55.728;38.022;2024-03-02T21:13:06;100925.78;;;15.02;36.90
75072;BME280;63651;55.728;38.022;2024-03-02T21:18:09;100926.56;;;14.96;36.36
75072;BME280;63651;55.728;38.022;2024-03-02T21:23:11;100912.69;;;14.98;36.71
75072;BME280;63651;55.728;38.022;2024-03-02T21:28:16;100924.47;;;14.98;36.69
75072;BME280;63651;55.728;38.022;2024-03-02T21:33:17;100914.13;;;14.94;36.85
75072;BME280;63651;55.728;38.022;2024-03-02T21:38:20;100926.13;;;14.93;36.72
75072;BME280;63651;55.728;38.022;2024-03-02T21:43:22;100928.88;;;14.93;36.78
75072;BME280;63651;55.728;38.022;2024-03-02T21:48:24;100917.69;;;14.88;36.34
75072;BME280;63651;55.728;38.022;2024-03-02T21:53:27;100928.19;;;14.84;36.45
75072;BME280;63651;55.728;38.022;2024-03-02T21:58:30;100929.88;;;14.85;36.33
75072;BME280;63651;55.728;38.022;2024-03-02T22:03:32;100925.84;;;14.81;36.63
75072;BME280;63651;55.728;38.022;2024-03-02T22:08:34;100931.09;;;14.83;36.30
75072;BME280;63651;55.728;38.022;2024-03-02T22:13:36;100929.63;;;14.80;36.72
75072;BME280;63651;55.728;38.022;2024-03-02T22:18:38;100918.63;;;14.73;36.95
75072;BME280;63651;55.728;38.022;2024-03-02T22:23:41;100920.50;;;14.73;36.55
75072;BME280;63651;55.728;38.022;2024-03-02T22:28:43;100927.69;;;14.74;36.57
75072;BME280;63651;55.728;38.022;2024-03-02T22:33:46;100931.84;;;14.70;36.39
75072;BME280;63651;55.728;38.022;2024-03-02T22:38:48;100938.38;;;14.69;36.58
75072;BME280;63651;55.728;38.022;2024-03-02T22:43:50;100949.50;;;14.67;36.86
75072;BME280;63651;55.728;38.022;2024-03-02T22:48:53;100941.09;;;14.69;35.95
75072;BME280;63651;55.728;38.022;2024-03-02T22:53:56;100949.50;;;14.67;36.49
75072;BME280;63651;55.728;38.022;2024-03-02T22:58:57;100945.47;;;14.63;36.03
75072;BME280;63651;55.728;38.022;2024-03-02T23:04:00;100945.66;;;14.62;36.39
75072;BME280;63651;55.728;38.022;2024-03-02T23:09:03;100950.88;;;14.57;36.31
75072;BME280;63651;55.728;38.022;2024-03-02T23:14:06;100951.53;;;14.59;36.17
75072;BME280;63651;55.728;38.022;2024-03-02T23:19:09;100941.19;;;14.54;35.88
75072;BME280;63651;55.728;38.022;2024-03-02T23:24:13;100946.66;;;14.54;36.26
75072;BME280;63651;55.728;38.022;2024-03-02T23:29:14;100946.66;;;14.54;36.28
75072;BME280;63651;55.728;38.022;2024-03-02T23:34:17;100952.31;;;14.53;35.97
75072;BME280;63651;55.728;38.022;2024-03-02T23:39:19;100949.34;;;14.48;36.21
75072;BME280;63651;55.728;38.022;2024-03-02T23:44:40;100957.53;;;14.48;35.97
75072;BME280;63651;55.728;38.022;2024-03-02T23:49:42;100956.88;;;14.46;35.71
75072;BME280;63651;55.728;38.022;2024-03-02T23:54:45;100960.00;;;14.43;36.44
75072;BME280;63651;55.728;38.022;2024-03-02T23:59:48;100965.94;;;14.46;35.99
